Time;durP1;ratioP1;P1;durP2;ratioP2;P2;SDS_P1;SDS_P2;PMS_P1;PMS_P2;Temp;Humidity;BMP_temperature;BMP_pressure;BME280_temperature;BME280_humidity;BME280_pressure;Samples;Min_cycle;Max_cycle;Signal;HPM_P1;HPM_P2
2023/05/05 00:00:50;;;;;;;6.53;3.80;;;;;;;;;;4961547;28;20042;-77
2023/05/05 00:03:19;;;;;;;4.05;3.17;;;;;;;;;;4934952;28;20046;-77
2023/05/05 00:05:46;;;;;;;3.67;2.85;;;;;;;;;;4957190;28;20039;-77
2023/05/05 00:08:11;;;;;;;4.28;2.97;;;;;;;;;;4959754;28;20066;-75
2023/05/05 00:10:36;;;;;;;8.68;3.50;;;;;;;;;;4960369;28;20034;-76
2023/05/05 00:13:02;;;;;;;6.90;3.58;;;;;;;;;;4958508;28;20047;-76
2023/05/05 00:15:27;;;;;;;2.75;2.13;;;;;;;;;;4955993;28;20030;-77
2023/05/05 00:17:53;;;;;;;6.35;3.58;;;;;;;;;;4918045;28;20100;-77
2023/05/05 00:20:18;;;;;;;5.85;3.70;;;;;;;;;;4964950;28;20035;-76
2023/05/05 00:22:43;;;;;;;4.10;3.67;;;;;;;;;;4961603;28;20683;-77
2023/05/05 00:25:09;;;;;;;6.45;4.10;;;;;;;;;;4955473;28;20038;-77
2023/05/05 00:27:34;;;;;;;6.30;3.90;;;;;;;;;;4957663;28;20042;-76
2023/05/05 00:30:00;;;;;;;3.03;2.53;;;;;;;;;;4969616;28;20035;-77
2023/05/05 00:32:26;;;;;;;5.57;3.15;;;;;;;;;;4944476;28;20098;-76
2023/05/05 00:34:52;;;;;;;4.60;2.88;;;;;;;;;;4958339;28;20467;-77
2023/05/05 00:37:17;;;;;;;5.78;3.38;;;;;;;;;;4952696;28;20070;-76
2023/05/05 00:39:43;;;;;;;2.75;2.42;;;;;;;;;;4957456;28;20062;-77
2023/05/05 00:42:09;;;;;;;6.57;4.22;;;;;;;;;;4961530;28;20045;-78
2023/05/05 00:44:39;;;;;;;7.47;4.22;;;;;;;;;;4949936;28;20058;-76
2023/05/05 00:47:05;;;;;;;7.70;3.77;;;;;;;;;;4911653;28;20188;-77
2023/05/05 00:49:31;;;;;;;6.00;3.83;;;;;;;;;;4971970;28;20917;-77
2023/05/05 00:51:58;;;;;;;5.10;4.15;;;;;;;;;;4969660;28;20034;-77
2023/05/05 00:54:24;;;;;;;5.72;3.70;;;;;;;;;;4952686;28;20055;-76
2023/05/05 00:56:50;;;;;;;6.00;3.80;;;;;;;;;;4945156;28;20046;-76
2023/05/05 00:59:16;;;;;;;6.18;4.03;;;;;;;;;;4938104;28;20065;-77
2023/05/05 01:01:42;;;;;;;5.88;4.00;;;;;;;;;;4964397;28;20069;-76
2023/05/05 01:04:07;;;;;;;5.70;4.45;;;;;;;;;;4966344;28;20038;-76
2023/05/05 01:07:12;;;;;;;6.70;4.53;;;;;;;;;;4970773;28;20038;-78
2023/05/05 01:09:47;;;;;;;8.30;3.25;;;;;;;;;;4938987;28;20112;-76
2023/05/05 01:12:38;;;;;;;5.63;3.70;;;;;;;;;;4958513;28;20035;-77
2023/05/05 01:15:11;;;;;;;4.22;3.05;;;;;;;;;;4954573;28;20134;-77
2023/05/05 01:17:53;;;;;;;5.00;2.97;;;;;;;;;;4941176;28;20074;-78
2023/05/05 01:21:00;;;;;;;7.22;4.68;;;;;;;;;;4920136;28;20172;-78
2023/05/05 01:23:34;;;;;;;8.02;4.25;;;;;;;;;;4951884;28;20069;-77
2023/05/05 01:25:59;;;;;;;6.68;4.57;;;;;;;;;;4957328;28;20035;-78
2023/05/05 01:28:58;;;;;;;8.88;5.22;;;;;;;;;;4957962;28;20069;-78
2023/05/05 01:31:50;;;;;;;4.85;3.65;;;;;;;;;;4904665;28;20047;-78
2023/05/05 01:34:20;;;;;;;3.33;2.67;;;;;;;;;;4956202;28;20121;-77
2023/05/05 01:37:01;;;;;;;9.27;4.40;;;;;;;;;;4955563;28;20117;-80
2023/05/05 01:39:32;;;;;;;4.60;3.67;;;;;;;;;;4957946;28;20556;-78
2023/05/05 01:42:05;;;;;;;3.23;2.33;;;;;;;;;;4927332;28;20910;-78
2023/05/05 01:44:33;;;;;;;2.22;2.05;;;;;;;;;;4951613;28;20330;-78
2023/05/05 01:46:59;;;;;;;7.68;3.15;;;;;;;;;;4947082;28;20039;-79
2023/05/05 01:49:25;;;;;;;4.32;3.08;;;;;;;;;;4948221;28;20047;-79
2023/05/05 01:51:52;;;;;;;2.60;2.40;;;;;;;;;;4950674;28;20058;-79
2023/05/05 01:54:19;;;;;;;3.72;2.88;;;;;;;;;;4935112;28;20111;-79
2023/05/05 01:56:45;;;;;;;6.45;5.13;;;;;;;;;;4957665;28;20038;-79
2023/05/05 01:59:11;;;;;;;4.20;2.40;;;;;;;;;;4946462;28;20081;-80
2023/05/05 02:01:40;;;;;;;2.65;2.30;;;;;;;;;;4953753;28;20105;-79
2023/05/05 02:04:08;;;;;;;10.05;4.53;;;;;;;;;;4956260;28;20154;-79
2023/05/05 02:06:35;;;;;;;5.90;4.20;;;;;;;;;;4935910;28;20519;-79
2023/05/05 02:09:02;;;;;;;8.60;4.68;;;;;;;;;;4948263;28;20579;-79
2023/05/05 02:11:28;;;;;;;5.88;4.60;;;;;;;;;;4954572;28;20408;-78
2023/05/05 02:13:54;;;;;;;4.88;3.78;;;;;;;;;;4956416;28;20049;-79
2023/05/05 02:16:21;;;;;;;5.00;3.55;;;;;;;;;;4947792;28;20423;-78
2023/05/05 02:18:48;;;;;;;6.75;4.40;;;;;;;;;;4947618;28;20039;-78
2023/05/05 02:21:16;;;;;;;6.25;4.50;;;;;;;;;;4920704;28;20034;-78
2023/05/05 02:23:42;;;;;;;6.47;4.47;;;;;;;;;;4950500;28;20050;-78
2023/05/05 02:26:09;;;;;;;4.20;3.55;;;;;;;;;;4955826;28;20432;-78
2023/05/05 02:28:42;;;;;;;7.10;4.13;;;;;;;;;;4935664;28;20034;-78
2023/05/05 02:31:10;;;;;;;5.97;3.38;;;;;;;;;;4955221;28;20034;-79
2023/05/05 02:33:38;;;;;;;6.55;3.83;;;;;;;;;;4935698;28;20050;-78
2023/05/05 02:36:26;;;;;;;7.00;4.20;;;;;;;;;;4939816;28;20137;-79
2023/05/05 02:39:00;;;;;;;6.57;4.20;;;;;;;;;;4947786;28;20830;-80
2023/05/05 02:41:30;;;;;;;2.10;1.90;;;;;;;;;;4956277;28;20084;-80
2023/05/05 02:43:58;;;;;;;3.47;2.00;;;;;;;;;;4939069;28;20426;-79
2023/05/05 02:46:23;;;;;;;3.70;2.70;;;;;;;;;;4953120;28;20047;-78
2023/05/05 02:48:49;;;;;;;7.97;5.07;;;;;;;;;;4944141;28;20057;-79
2023/05/05 02:51:14;;;;;;;5.70;3.85;;;;;;;;;;4952254;28;20043;-78
2023/05/05 02:53:40;;;;;;;2.00;1.90;;;;;;;;;;4955607;28;20034;-79
2023/05/05 02:56:46;;;;;;;7.63;4.07;;;;;;;;;;4952663;28;20043;-80
2023/05/05 02:59:35;;;;;;;6.55;4.00;;;;;;;;;;4919328;28;20508;-80
2023/05/05 03:02:14;;;;;;;6.93;4.00;;;;;;;;;;4963395;28;20541;-79
2023/05/05 03:04:58;;;;;;;8.02;3.67;;;;;;;;;;4951826;28;20070;-78
2023/05/05 03:07:28;;;;;;;10.98;4.20;;;;;;;;;;4945321;28;20573;-80
2023/05/05 03:10:05;;;;;;;7.78;4.28;;;;;;;;;;4964649;28;20164;-79
2023/05/05 03:12:38;;;;;;;8.32;4.32;;;;;;;;;;4960111;28;20037;-79
2023/05/05 03:15:07;;;;;;;7.53;4.30;;;;;;;;;;4958530;28;20038;-80
2023/05/05 03:17:35;;;;;;;7.25;4.63;;;;;;;;;;4949833;28;20041;-79
2023/05/05 03:20:03;;;;;;;3.53;2.65;;;;;;;;;;4944890;28;20562;-78
2023/05/05 03:22:29;;;;;;;7.07;4.13;;;;;;;;;;4957124;28;20042;-80
2023/05/05 03:24:54;;;;;;;3.33;2.03;;;;;;;;;;4963874;28;20080;-80
2023/05/05 03:27:20;;;;;;;7.90;4.30;;;;;;;;;;4954787;28;20389;-80
2023/05/05 03:29:45;;;;;;;3.00;2.72;;;;;;;;;;4954061;28;20117;-80
2023/05/05 03:32:11;;;;;;;4.47;2.90;;;;;;;;;;4948171;28;20050;-79
2023/05/05 03:34:36;;;;;;;2.97;2.67;;;;;;;;;;4951591;28;20090;-79
2023/05/05 03:37:02;;;;;;;7.72;4.20;;;;;;;;;;4958900;28;20039;-80
2023/05/05 03:39:27;;;;;;;5.47;3.83;;;;;;;;;;4967466;28;20038;-79
2023/05/05 03:41:53;;;;;;;6.95;4.75;;;;;;;;;;4966177;28;20140;-80
2023/05/05 03:44:18;;;;;;;2.85;2.13;;;;;;;;;;4941544;28;20043;-80
2023/05/05 03:46:43;;;;;;;5.97;3.15;;;;;;;;;;4952185;28;20038;-80
2023/05/05 03:49:09;;;;;;;9.07;4.05;;;;;;;;;;4947338;28;20638;-80
2023/05/05 03:51:35;;;;;;;2.13;1.95;;;;;;;;;;4965671;28;20049;-80
2023/05/05 03:54:01;;;;;;;7.22;4.55;;;;;;;;;;4959636;28;20511;-79
2023/05/05 03:56:26;;;;;;;5.88;4.43;;;;;;;;;;4960414;28;20043;-79
2023/05/05 03:58:51;;;;;;;6.20;3.85;;;;;;;;;;4955580;28;20058;-80
2023/05/05 04:01:17;;;;;;;10.98;5.38;;;;;;;;;;4939790;28;20308;-80
2023/05/05 04:03:42;;;;;;;8.15;4.75;;;;;;;;;;4948462;28;20047;-78
2023/05/05 04:06:08;;;;;;;3.67;2.75;;;;;;;;;;4956323;28;20034;-78
2023/05/05 04:08:33;;;;;;;2.83;2.45;;;;;;;;;;4962664;28;20412;-78
2023/05/05 04:11:01;;;;;;;4.18;3.03;;;;;;;;;;4959353;28;20027;-79
2023/05/05 04:13:27;;;;;;;7.65;4.72;;;;;;;;;;4958271;28;20058;-80
2023/05/05 04:15:52;;;;;;;7.57;5.50;;;;;;;;;;4954198;28;20053;-79
2023/05/05 04:18:18;;;;;;;8.05;5.07;;;;;;;;;;4927564;28;20046;-80
2023/05/05 04:20:43;;;;;;;8.00;5.18;;;;;;;;;;4952323;28;20126;-79
2023/05/05 04:23:08;;;;;;;7.75;4.45;;;;;;;;;;4957619;28;20097;-78
2023/05/05 04:25:34;;;;;;;9.57;4.85;;;;;;;;;;4957573;28;20031;-78
2023/05/05 04:27:59;;;;;;;7.75;5.45;;;;;;;;;;4943311;28;20061;-79
2023/05/05 04:30:25;;;;;;;4.28;3.35;;;;;;;;;;4942903;28;20039;-78
2023/05/05 04:32:51;;;;;;;8.23;5.05;;;;;;;;;;4949849;28;20046;-79
2023/05/05 04:35:16;;;;;;;7.10;5.40;;;;;;;;;;4956393;28;20770;-80
2023/05/05 04:37:41;;;;;;;10.20;5.45;;;;;;;;;;4944913;28;20043;-79
2023/05/05 04:40:07;;;;;;;3.75;2.90;;;;;;;;;;4948031;28;20129;-79
2023/05/05 04:42:33;;;;;;;6.97;5.10;;;;;;;;;;4932733;28;20054;-79
2023/05/05 04:44:58;;;;;;;9.13;5.97;;;;;;;;;;4953455;28;20428;-78
2023/05/05 04:47:24;;;;;;;6.40;5.22;;;;;;;;;;4937079;28;20519;-78
2023/05/05 04:49:49;;;;;;;11.73;6.10;;;;;;;;;;4953774;28;20393;-79
2023/05/05 04:52:15;;;;;;;9.73;5.78;;;;;;;;;;4949104;28;20452;-79
2023/05/05 04:54:40;;;;;;;11.77;5.65;;;;;;;;;;4964169;28;20501;-78
2023/05/05 04:57:06;;;;;;;7.55;5.53;;;;;;;;;;4956018;28;20038;-77
2023/05/05 04:59:31;;;;;;;8.68;5.80;;;;;;;;;;4955860;28;20555;-78
2023/05/05 05:01:57;;;;;;;9.35;6.00;;;;;;;;;;4963067;28;20046;-77
2023/05/05 05:04:24;;;;;;;10.82;5.03;;;;;;;;;;4963612;28;20035;-79
2023/05/05 05:06:50;;;;;;;7.38;5.30;;;;;;;;;;4968374;28;20561;-79
2023/05/05 05:09:15;;;;;;;6.95;5.47;;;;;;;;;;4965987;28;20050;-79
2023/05/05 05:11:40;;;;;;;7.18;5.15;;;;;;;;;;4947174;28;20038;-76
2023/05/05 05:14:06;;;;;;;10.27;6.47;;;;;;;;;;4952613;28;20042;-77
2023/05/05 05:16:31;;;;;;;8.05;5.90;;;;;;;;;;4967203;28;20054;-78
2023/05/05 05:18:57;;;;;;;10.00;5.85;;;;;;;;;;4961320;28;20086;-77
2023/05/05 05:21:22;;;;;;;12.43;6.28;;;;;;;;;;4962010;28;20583;-77
2023/05/05 05:23:47;;;;;;;8.70;6.35;;;;;;;;;;4959173;28;20118;-77
2023/05/05 05:26:13;;;;;;;8.18;6.35;;;;;;;;;;4950746;28;20070;-78
2023/05/05 05:28:38;;;;;;;11.30;5.57;;;;;;;;;;4952963;28;20042;-76
2023/05/05 05:31:04;;;;;;;8.20;5.25;;;;;;;;;;4958638;28;20049;-78
2023/05/05 05:33:29;;;;;;;8.25;5.38;;;;;;;;;;4955774;28;20617;-79
2023/05/05 05:35:54;;;;;;;10.23;6.35;;;;;;;;;;4959708;28;20042;-79
2023/05/05 05:38:20;;;;;;;7.75;5.50;;;;;;;;;;4947975;28;20030;-78
2023/05/05 05:40:45;;;;;;;10.15;6.57;;;;;;;;;;4946418;28;20035;-77
2023/05/05 05:43:11;;;;;;;9.73;6.80;;;;;;;;;;4949251;28;20073;-78
2023/05/05 05:45:36;;;;;;;10.23;6.43;;;;;;;;;;4953537;28;20057;-78
2023/05/05 05:48:01;;;;;;;9.32;5.43;;;;;;;;;;4952969;28;20435;-77
2023/05/05 05:50:27;;;;;;;7.72;5.68;;;;;;;;;;4950560;28;20047;-78
2023/05/05 05:52:53;;;;;;;9.45;5.88;;;;;;;;;;4943496;28;20126;-78
2023/05/05 05:55:18;;;;;;;10.38;6.30;;;;;;;;;;4928922;28;20439;-78
2023/05/05 05:57:44;;;;;;;12.02;6.75;;;;;;;;;;4943077;28;20038;-78
2023/05/05 06:00:10;;;;;;;10.48;5.82;;;;;;;;;;4946314;28;20101;-78
2023/05/05 06:02:35;;;;;;;12.07;6.80;;;;;;;;;;4956939;28;20045;-77
2023/05/05 06:05:00;;;;;;;8.95;6.47;;;;;;;;;;4949899;28;20042;-77
2023/05/05 06:07:26;;;;;;;8.88;6.72;;;;;;;;;;4943336;28;20038;-77
2023/05/05 06:09:51;;;;;;;9.48;5.88;;;;;;;;;;4954447;28;20045;-78
2023/05/05 06:12:17;;;;;;;8.00;6.45;;;;;;;;;;4945606;28;20089;-78
2023/05/05 06:14:42;;;;;;;9.23;6.45;;;;;;;;;;4955758;28;20065;-78
2023/05/05 06:17:08;;;;;;;10.40;5.90;;;;;;;;;;4946831;28;20122;-78
2023/05/05 06:19:34;;;;;;;7.90;6.05;;;;;;;;;;4950396;28;20038;-78
2023/05/05 06:21:59;;;;;;;9.07;6.22;;;;;;;;;;4943760;28;20038;-79
2023/05/05 06:24:24;;;;;;;10.52;6.70;;;;;;;;;;4960397;28;20046;-79
2023/05/05 06:26:50;;;;;;;10.95;6.88;;;;;;;;;;4942043;28;20122;-79
2023/05/05 06:29:15;;;;;;;9.32;6.43;;;;;;;;;;4954520;28;20038;-78
2023/05/05 06:31:41;;;;;;;3.72;2.60;;;;;;;;;;4956050;28;20256;-79
2023/05/05 06:34:06;;;;;;;7.78;5.75;;;;;;;;;;4954736;28;20174;-78
2023/05/05 06:36:31;;;;;;;9.10;6.07;;;;;;;;;;4952963;28;20535;-79
2023/05/05 06:38:57;;;;;;;12.20;6.05;;;;;;;;;;4926790;28;20053;-79
2023/05/05 06:41:22;;;;;;;10.10;6.60;;;;;;;;;;4951309;28;20058;-78
2023/05/05 06:43:48;;;;;;;9.90;6.45;;;;;;;;;;4926894;28;20046;-79
2023/05/05 06:46:13;;;;;;;10.00;6.13;;;;;;;;;;4950100;28;20047;-79
2023/05/05 06:48:38;;;;;;;8.15;5.00;;;;;;;;;;4937193;28;20045;-79
2023/05/05 06:51:04;;;;;;;10.63;6.22;;;;;;;;;;4925670;28;20027;-79
2023/05/05 06:53:29;;;;;;;8.95;6.22;;;;;;;;;;4939200;28;20132;-79
2023/05/05 06:55:55;;;;;;;9.13;6.13;;;;;;;;;;4954184;28;20053;-79
2023/05/05 06:58:20;;;;;;;14.55;6.70;;;;;;;;;;4937473;28;20526;-79
2023/05/05 07:00:46;;;;;;;11.35;7.45;;;;;;;;;;4950617;28;20121;-79
2023/05/05 07:03:12;;;;;;;7.25;4.68;;;;;;;;;;4940906;28;20050;-79
2023/05/05 07:05:37;;;;;;;8.82;6.03;;;;;;;;;;4943989;28;20039;-79
2023/05/05 07:08:03;;;;;;;11.80;7.32;;;;;;;;;;4938695;28;20050;-78
2023/05/05 07:10:28;;;;;;;11.90;7.13;;;;;;;;;;4949585;28;20050;-79
2023/05/05 07:12:54;;;;;;;10.07;6.70;;;;;;;;;;4938108;28;20118;-79
2023/05/05 07:15:21;;;;;;;9.32;6.10;;;;;;;;;;4954029;28;20070;-79
2023/05/05 07:17:46;;;;;;;10.82;6.50;;;;;;;;;;4946590;28;20523;-79
2023/05/05 07:20:12;;;;;;;8.32;5.78;;;;;;;;;;4941416;28;20039;-79
2023/05/05 07:22:37;;;;;;;8.35;6.65;;;;;;;;;;4930946;28;20092;-79
2023/05/05 07:25:04;;;;;;;8.43;6.13;;;;;;;;;;4928754;28;20038;-79
2023/05/05 07:27:30;;;;;;;9.25;6.10;;;;;;;;;;4947573;28;20154;-79
2023/05/05 07:29:55;;;;;;;9.93;6.13;;;;;;;;;;4943765;28;20031;-79
2023/05/05 07:32:21;;;;;;;10.05;5.68;;;;;;;;;;4937811;28;20061;-79
2023/05/05 07:34:46;;;;;;;8.57;5.63;;;;;;;;;;4930102;28;20098;-79
2023/05/05 07:37:12;;;;;;;13.48;6.30;;;;;;;;;;4943334;28;20545;-79
2023/05/05 07:39:37;;;;;;;10.05;5.40;;;;;;;;;;4944474;28;20038;-78
2023/05/05 07:42:02;;;;;;;10.77;5.90;;;;;;;;;;4941415;28;20031;-79
2023/05/05 07:44:28;;;;;;;8.30;5.80;;;;;;;;;;4960457;28;20043;-79
2023/05/05 07:46:53;;;;;;;6.97;5.68;;;;;;;;;;4944602;28;20050;-79
2023/05/05 07:49:19;;;;;;;8.15;5.88;;;;;;;;;;4953930;28;20042;-79
2023/05/05 07:51:45;;;;;;;9.60;5.97;;;;;;;;;;4941311;28;20087;-78
2023/05/05 07:54:10;;;;;;;10.77;6.40;;;;;;;;;;4951037;28;20701;-79
2023/05/05 07:56:36;;;;;;;9.25;6.30;;;;;;;;;;4951543;28;20280;-79
2023/05/05 07:59:01;;;;;;;8.43;5.45;;;;;;;;;;4957629;28;20038;-79
2023/05/05 08:01:27;;;;;;;9.60;5.75;;;;;;;;;;4938340;28;20125;-79
2023/05/05 08:03:52;;;;;;;9.25;6.38;;;;;;;;;;4923066;28;20921;-79
2023/05/05 08:06:22;;;;;;;8.88;6.57;;;;;;;;;;4953841;28;20047;-79
2023/05/05 08:08:48;;;;;;;8.50;6.45;;;;;;;;;;4942275;28;20125;-79
2023/05/05 08:11:14;;;;;;;10.48;6.28;;;;;;;;;;4949196;28;20602;-78
2023/05/05 08:13:44;;;;;;;8.48;6.35;;;;;;;;;;4946707;28;20042;-79
2023/05/05 08:16:10;;;;;;;8.48;6.32;;;;;;;;;;4949593;28;20039;-78
2023/05/05 08:18:37;;;;;;;6.97;6.28;;;;;;;;;;4927791;28;20051;-79
2023/05/05 08:21:07;;;;;;;7.97;6.22;;;;;;;;;;4956583;28;20217;-79
2023/05/05 08:23:36;;;;;;;10.98;5.90;;;;;;;;;;4945150;28;20073;-79
2023/05/05 08:26:05;;;;;;;10.77;6.18;;;;;;;;;;4955869;28;20041;-79
2023/05/05 08:28:31;;;;;;;9.07;5.95;;;;;;;;;;4940572;28;20162;-79
2023/05/05 08:30:57;;;;;;;11.35;6.72;;;;;;;;;;4945139;28;20046;-79
2023/05/05 08:33:23;;;;;;;10.32;6.68;;;;;;;;;;4948840;28;20208;-79
2023/05/05 08:35:48;;;;;;;8.00;5.90;;;;;;;;;;4941009;28;20121;-79
2023/05/05 08:38:14;;;;;;;8.65;6.18;;;;;;;;;;4958372;28;20126;-79
2023/05/05 08:40:40;;;;;;;8.13;6.20;;;;;;;;;;4950855;28;20048;-79
2023/05/05 08:43:05;;;;;;;8.75;6.57;;;;;;;;;;4931062;28;20051;-79
2023/05/05 08:45:31;;;;;;;9.95;5.72;;;;;;;;;;4936862;28;20042;-78
2023/05/05 08:48:00;;;;;;;8.57;6.47;;;;;;;;;;4950455;28;20045;-79
2023/05/05 08:50:28;;;;;;;8.80;6.00;;;;;;;;;;4942479;28;20112;-79
2023/05/05 08:53:10;;;;;;;11.10;6.53;;;;;;;;;;4927015;28;20078;-79
2023/05/05 08:55:44;;;;;;;10.07;6.13;;;;;;;;;;4913610;28;20128;-79
2023/05/05 08:58:10;;;;;;;9.02;5.75;;;;;;;;;;4938111;28;20048;-79
2023/05/05 09:00:36;;;;;;;12.48;5.78;;;;;;;;;;4948705;28;20070;-79
2023/05/05 09:03:03;;;;;;;8.45;5.43;;;;;;;;;;4939887;28;20439;-79
2023/05/05 09:05:28;;;;;;;7.90;5.30;;;;;;;;;;4952441;28;20530;-79
2023/05/05 09:07:54;;;;;;;7.75;5.65;;;;;;;;;;4936049;28;20039;-79
2023/05/05 09:10:20;;;;;;;7.90;5.65;;;;;;;;;;4947511;28;20035;-79
2023/05/05 09:12:45;;;;;;;8.63;5.85;;;;;;;;;;4936597;28;20105;-79
2023/05/05 09:15:13;;;;;;;9.40;5.85;;;;;;;;;;4950745;28;20044;-78
2023/05/05 09:17:40;;;;;;;10.52;5.68;;;;;;;;;;4943075;28;20095;-78
2023/05/05 09:20:11;;;;;;;8.70;5.60;;;;;;;;;;4956948;28;20508;-79
2023/05/05 09:22:41;;;;;;;8.10;5.15;;;;;;;;;;4909170;28;20119;-78
2023/05/05 09:25:08;;;;;;;8.45;5.47;;;;;;;;;;4942783;28;20158;-78
2023/05/05 09:28:06;;;;;;;7.38;4.53;;;;;;;;;;4950816;28;20039;-78
2023/05/05 09:30:33;;;;;;;7.07;5.28;;;;;;;;;;4950072;28;20097;-78
2023/05/05 09:33:00;;;;;;;6.47;5.28;;;;;;;;;;4910316;28;20056;-78
2023/05/05 09:35:26;;;;;;;8.38;5.80;;;;;;;;;;4939801;28;20038;-79
2023/05/05 09:37:52;;;;;;;7.82;5.22;;;;;;;;;;4949130;28;20393;-78
2023/05/05 09:40:18;;;;;;;5.75;4.18;;;;;;;;;;4936604;28;20139;-78
2023/05/05 09:42:44;;;;;;;10.40;5.13;;;;;;;;;;4915134;28;20046;-79
2023/05/05 09:45:18;;;;;;;7.70;5.68;;;;;;;;;;4936829;28;20050;-78
2023/05/05 09:47:47;;;;;;;6.70;4.93;;;;;;;;;;4893635;28;20107;-78
2023/05/05 09:50:14;;;;;;;6.30;4.00;;;;;;;;;;4929160;28;20081;-78
2023/05/05 09:53:01;;;;;;;11.90;5.32;;;;;;;;;;4926087;28;20158;-78
2023/05/05 09:55:27;;;;;;;7.88;4.88;;;;;;;;;;4925784;28;20074;-78
2023/05/05 09:57:52;;;;;;;7.47;4.90;;;;;;;;;;4940995;28;20038;-79
2023/05/05 10:00:18;;;;;;;7.18;5.10;;;;;;;;;;4936919;28;20035;-78
2023/05/05 10:02:44;;;;;;;11.75;5.55;;;;;;;;;;4919869;28;20596;-78
2023/05/05 10:05:16;;;;;;;8.48;4.93;;;;;;;;;;4947286;28;20145;-78
2023/05/05 10:07:44;;;;;;;7.00;4.50;;;;;;;;;;4938295;28;20055;-79
2023/05/05 10:10:12;;;;;;;9.73;5.18;;;;;;;;;;4939191;28;20061;-78
2023/05/05 10:12:38;;;;;;;8.23;5.25;;;;;;;;;;4917167;28;20059;-78
2023/05/05 10:15:05;;;;;;;7.20;4.97;;;;;;;;;;4957674;28;20144;-78
2023/05/05 10:17:35;;;;;;;7.32;4.93;;;;;;;;;;4932690;28;20046;-79
2023/05/05 10:20:02;;;;;;;5.63;4.68;;;;;;;;;;4939532;28;20049;-79
2023/05/05 10:22:33;;;;;;;5.50;3.92;;;;;;;;;;4934949;28;20039;-78
2023/05/05 10:25:12;;;;;;;;;;;;;;;;;;4936539;28;20606;-79
2023/05/05 10:27:49;;;;;;;7.47;5.93;;;;;;;;;;4949821;28;19965;-79
2023/05/05 10:30:29;;;;;;;4.15;3.75;;;;;;;;;;4949422;28;20039;-78
2023/05/05 10:33:08;;;;;;;10.32;5.45;;;;;;;;;;4935025;28;20031;-79
2023/05/05 10:35:36;;;;;;;5.15;4.60;;;;;;;;;;4926173;28;20059;-78
2023/05/05 10:38:02;;;;;;;4.30;3.72;;;;;;;;;;4949363;28;20693;-79
2023/05/05 10:40:28;;;;;;;7.45;4.93;;;;;;;;;;4945806;28;20139;-78
2023/05/05 10:42:54;;;;;;;3.45;3.05;;;;;;;;;;4932773;28;20571;-78
2023/05/05 10:45:20;;;;;;;4.60;3.53;;;;;;;;;;4934778;28;20251;-78
2023/05/05 10:47:45;;;;;;;5.22;4.53;;;;;;;;;;4904657;28;20731;-79
2023/05/05 10:50:29;;;;;;;6.85;5.30;;;;;;;;;;4945253;28;20046;-79
2023/05/05 10:53:12;;;;;;;5.53;4.45;;;;;;;;;;4934708;28;20039;-78
2023/05/05 10:56:04;;;;;;;5.40;4.65;;;;;;;;;;4952885;28;20037;-78
2023/05/05 10:58:32;;;;;;;6.97;4.78;;;;;;;;;;4914923;28;20694;-77
2023/05/05 11:00:58;;;;;;;6.00;5.20;;;;;;;;;;4942021;28;20728;-76
2023/05/05 11:03:25;;;;;;;5.97;5.22;;;;;;;;;;4931566;28;20053;-78
2023/05/05 11:06:02;;;;;;;6.32;4.60;;;;;;;;;;4949233;28;20623;-78
2023/05/05 11:08:31;;;;;;;5.35;4.63;;;;;;;;;;4940574;28;20105;-77
2023/05/05 11:10:58;;;;;;;6.30;5.35;;;;;;;;;;4913197;28;20042;-77
2023/05/05 11:13:23;;;;;;;6.40;4.95;;;;;;;;;;4923935;28;20043;-77
2023/05/05 11:15:55;;;;;;;5.15;4.60;;;;;;;;;;4945163;28;20108;-78
2023/05/05 11:18:43;;;;;;;6.45;4.80;;;;;;;;;;4947476;28;20121;-79
2023/05/05 11:21:14;;;;;;;6.13;4.35;;;;;;;;;;4955530;28;20042;-79
2023/05/05 11:23:43;;;;;;;8.35;5.53;;;;;;;;;;4904111;28;20102;-79
2023/05/05 11:26:10;;;;;;;8.40;5.82;;;;;;;;;;4953406;28;20046;-80
2023/05/05 11:28:55;;;;;;;3.75;3.42;;;;;;;;;;4956538;28;20076;-79
2023/05/05 11:31:21;;;;;;;5.20;3.28;;;;;;;;;;4939512;28;20034;-80
2023/05/05 11:33:47;;;;;;;6.65;5.18;;;;;;;;;;4904806;28;20833;-79
2023/05/05 11:36:16;;;;;;;5.35;4.68;;;;;;;;;;4952367;28;20515;-80
2023/05/05 11:38:53;;;;;;;5.83;3.93;;;;;;;;;;4945027;28;20042;-80
2023/05/05 11:41:55;;;;;;;6.22;5.13;;;;;;;;;;4953358;28;20065;-79
2023/05/05 11:44:29;;;;;;;8.82;5.80;;;;;;;;;;4906077;28;20134;-79
2023/05/05 11:46:58;;;;;;;9.32;6.38;;;;;;;;;;4952250;28;20052;-79
2023/05/05 11:49:35;;;;;;;9.35;6.22;;;;;;;;;;4954259;28;20062;-79
2023/05/05 11:52:01;;;;;;;7.80;6.38;;;;;;;;;;4926848;28;20098;-79
2023/05/05 11:54:27;;;;;;;9.20;6.50;;;;;;;;;;4960168;28;20137;-79
2023/05/05 11:56:58;;;;;;;8.68;5.90;;;;;;;;;;4936248;28;20042;-78
2023/05/05 11:59:23;;;;;;;9.15;6.78;;;;;;;;;;4955788;28;20039;-78
2023/05/05 12:01:49;;;;;;;6.85;5.63;;;;;;;;;;4944918;28;20137;-79
2023/05/05 12:04:15;;;;;;;7.75;6.18;;;;;;;;;;4952305;28;20098;-79
2023/05/05 12:06:41;;;;;;;7.60;6.00;;;;;;;;;;4935881;28;20594;-79
2023/05/05 12:09:14;;;;;;;7.70;6.18;;;;;;;;;;4927270;28;20054;-79
2023/05/05 12:11:53;;;;;;;7.57;6.03;;;;;;;;;;4946748;28;20054;-78
2023/05/05 12:14:19;;;;;;;7.75;5.90;;;;;;;;;;4948362;28;20039;-79
2023/05/05 12:17:00;;;;;;;10.00;6.00;;;;;;;;;;4951852;28;20185;-80
2023/05/05 12:19:31;;;;;;;5.35;4.65;;;;;;;;;;4937568;28;20042;-78
2023/05/05 12:22:01;;;;;;;10.30;7.18;;;;;;;;;;4941721;28;20430;-79
2023/05/05 12:24:27;;;;;;;9.45;6.63;;;;;;;;;;4945517;28;20026;-78
2023/05/05 12:26:52;;;;;;;7.30;6.30;;;;;;;;;;4947598;28;20073;-78
2023/05/05 12:29:24;;;;;;;7.57;5.75;;;;;;;;;;4953787;28;20151;-79
2023/05/05 12:31:50;;;;;;;7.07;6.13;;;;;;;;;;4928867;28;20097;-80
2023/05/05 12:34:16;;;;;;;8.13;6.50;;;;;;;;;;4932445;28;20055;-78
2023/05/05 12:36:42;;;;;;;9.68;6.20;;;;;;;;;;4941971;28;20034;-79
2023/05/05 12:39:07;;;;;;;6.47;5.75;;;;;;;;;;4960848;28;20094;-78
2023/05/05 12:41:33;;;;;;;11.00;6.78;;;;;;;;;;4943697;28;20804;-78
2023/05/05 12:44:00;;;;;;;7.65;6.85;;;;;;;;;;4948394;28;20673;-78
2023/05/05 12:46:28;;;;;;;8.23;6.95;;;;;;;;;;4941711;28;20043;-78
2023/05/05 12:49:00;;;;;;;6.32;4.95;;;;;;;;;;4923325;28;20051;-78
2023/05/05 12:51:25;;;;;;;8.60;6.72;;;;;;;;;;4932803;28;20047;-79
2023/05/05 12:54:08;;;;;;;8.23;5.78;;;;;;;;;;4915572;28;20435;-79
2023/05/05 12:56:35;;;;;;;9.82;6.22;;;;;;;;;;4924243;28;20109;-78
2023/05/05 12:59:03;;;;;;;7.70;6.78;;;;;;;;;;4932972;28;20491;-78
2023/05/05 13:01:28;;;;;;;8.70;6.50;;;;;;;;;;4945897;28;20046;-79
2023/05/05 13:04:07;;;;;;;7.30;6.00;;;;;;;;;;4925832;28;20714;-77
2023/05/05 13:06:32;;;;;;;8.43;6.60;;;;;;;;;;4950031;28;21000;-78
2023/05/05 13:08:58;;;;;;;8.38;7.07;;;;;;;;;;4945789;28;20058;-78
2023/05/05 13:11:23;;;;;;;7.95;6.93;;;;;;;;;;4926425;28;20049;-79
2023/05/05 13:13:49;;;;;;;8.65;7.22;;;;;;;;;;4946593;28;20043;-78
2023/05/05 13:16:14;;;;;;;10.25;8.25;;;;;;;;;;4953882;28;20074;-78
2023/05/05 13:18:49;;;;;;;10.73;7.18;;;;;;;;;;4950802;28;20814;-79
2023/05/05 13:21:15;;;;;;;8.93;6.82;;;;;;;;;;4946519;28;20521;-80
2023/05/05 13:23:46;;;;;;;7.82;6.88;;;;;;;;;;4927638;28;20050;-80
2023/05/05 13:26:12;;;;;;;9.57;6.80;;;;;;;;;;4918233;28;20234;-80
2023/05/05 13:28:38;;;;;;;8.70;6.15;;;;;;;;;;4955439;28;20053;-80
2023/05/05 13:31:04;;;;;;;9.38;6.38;;;;;;;;;;4953096;28;20539;-81
2023/05/05 13:33:34;;;;;;;6.97;6.25;;;;;;;;;;4942066;28;20153;-80
2023/05/05 13:36:00;;;;;;;7.95;6.68;;;;;;;;;;4958845;28;20045;-79
2023/05/05 13:38:26;;;;;;;8.57;6.47;;;;;;;;;;4923690;28;20066;-79
2023/05/05 13:40:52;;;;;;;7.55;6.50;;;;;;;;;;4937244;28;20782;-79
2023/05/05 13:43:18;;;;;;;9.85;7.32;;;;;;;;;;4934925;28;20042;-80
2023/05/05 13:45:44;;;;;;;5.25;4.07;;;;;;;;;;4952053;28;20054;-80
2023/05/05 13:48:09;;;;;;;7.03;6.10;;;;;;;;;;4947579;28;20521;-79
2023/05/05 13:50:35;;;;;;;6.97;6.28;;;;;;;;;;4943961;28;20814;-80
2023/05/05 13:53:00;;;;;;;7.97;6.20;;;;;;;;;;4917675;28;20147;-80
2023/05/05 13:55:27;;;;;;;6.65;5.70;;;;;;;;;;4949745;28;20055;-79
2023/05/05 13:57:53;;;;;;;8.07;6.63;;;;;;;;;;4950633;28;20035;-80
2023/05/05 14:00:19;;;;;;;7.65;6.38;;;;;;;;;;4945552;28;20035;-80
2023/05/05 14:02:45;;;;;;;10.02;6.90;;;;;;;;;;4932503;28;20054;-79
2023/05/05 14:05:11;;;;;;;8.07;6.43;;;;;;;;;;4955805;28;20546;-80
2023/05/05 14:07:36;;;;;;;8.38;6.65;;;;;;;;;;4933262;28;20072;-80
2023/05/05 14:10:03;;;;;;;8.02;6.85;;;;;;;;;;4947848;28;20038;-79
2023/05/05 14:12:29;;;;;;;7.80;5.90;;;;;;;;;;4936647;28;20038;-80
2023/05/05 14:14:54;;;;;;;6.45;5.80;;;;;;;;;;4953650;28;20383;-80
2023/05/05 14:17:19;;;;;;;9.48;6.40;;;;;;;;;;4949586;28;20030;-80
2023/05/05 14:19:45;;;;;;;7.85;7.05;;;;;;;;;;4940626;28;20039;-80
2023/05/05 14:22:10;;;;;;;7.28;6.55;;;;;;;;;;4932987;28;20054;-79
2023/05/05 14:24:36;;;;;;;8.95;5.85;;;;;;;;;;4953136;28;20035;-79
2023/05/05 14:27:03;;;;;;;8.63;7.05;;;;;;;;;;4954537;28;20042;-79
2023/05/05 14:29:28;;;;;;;9.00;6.40;;;;;;;;;;4957051;28;20798;-79
2023/05/05 14:31:54;;;;;;;8.05;6.82;;;;;;;;;;4937420;28;20523;-78
2023/05/05 14:34:19;;;;;;;7.28;6.55;;;;;;;;;;4931977;28;20288;-79
2023/05/05 14:36:45;;;;;;;8.30;6.30;;;;;;;;;;4953689;28;20047;-79
2023/05/05 14:39:10;;;;;;;7.60;6.63;;;;;;;;;;4953746;28;20886;-80
2023/05/05 14:41:36;;;;;;;7.13;6.05;;;;;;;;;;4922701;28;20055;-79
2023/05/05 14:44:01;;;;;;;6.72;5.30;;;;;;;;;;4917531;28;20047;-78
2023/05/05 14:46:26;;;;;;;7.45;5.75;;;;;;;;;;4946226;28;20047;-79